sensor_id;sensor_type;location;lat;lon;timestamp;P1;durP1;ratioP1;P2;durP2;ratioP2
20056;SDS011;10189;49.546;7.906;2024-03-23T00:51:47;35.45;;;25.05;;
20056;SDS011;10189;49.546;7.906;2024-03-23T00:54:14;33.42;;;23.13;;
20056;SDS011;10189;49.546;7.906;2024-03-23T00:56:40;29.15;;;22.13;;
20056;SDS011;10189;49.546;7.906;2024-03-23T00:59:06;26.73;;;21.92;;
20056;SDS011;10189;49.546;7.906;2024-03-23T01:01:32;28.80;;;22.33;;
20056;SDS011;10189;49.546;7.906;2024-03-23T01:03:58;28.30;;;21.40;;
20056;SDS011;10189;49.546;7.906;2024-03-23T01:06:24;30.60;;;23.38;;
20056;SDS011;10189;49.546;7.906;2024-03-23T01:08:50;29.15;;;22.90;;
20056;SDS011;10189;49.546;7.906;2024-03-23T01:11:16;33.40;;;22.75;;
20056;SDS011;10189;49.546;7.906;2024-03-23T01:13:41;29.63;;;22.60;;
20056;SDS011;10189;49.546;7.906;2024-03-23T01:16:07;31.60;;;24.23;;
20056;SDS011;10189;49.546;7.906;2024-03-23T01:18:33;31.13;;;22.75;;
20056;SDS011;10189;49.546;7.906;2024-03-23T01:20:59;29.33;;;22.83;;
20056;SDS011;10189;49.546;7.906;2024-03-23T01:23:25;32.00;;;23.85;;
20056;SDS011;10189;49.546;7.906;2024-03-23T01:25:51;31.05;;;22.33;;
20056;SDS011;10189;49.546;7.906;2024-03-23T01:28:20;33.50;;;24.25;;
20056;SDS011;10189;49.546;7.906;2024-03-23T01:30:47;37.33;;;25.85;;
20056;SDS011;10189;49.546;7.906;2024-03-23T01:33:13;36.50;;;26.95;;
20056;SDS011;10189;49.546;7.906;2024-03-23T01:35:40;34.70;;;25.95;;
20056;SDS011;10189;49.546;7.906;2024-03-23T01:38:06;36.30;;;27.30;;
20056;SDS011;10189;49.546;7.906;2024-03-23T01:40:32;36.28;;;25.92;;
20056;SDS011;10189;49.546;7.906;2024-03-23T01:42:58;34.78;;;25.60;;
20056;SDS011;10189;49.546;7.906;2024-03-23T01:47:55;34.65;;;26.20;;
20056;SDS011;10189;49.546;7.906;2024-03-23T01:50:22;37.63;;;27.50;;
20056;SDS011;10189;49.546;7.906;2024-03-23T01:52:51;37.20;;;25.98;;
20056;SDS011;10189;49.546;7.906;2024-03-23T01:55:17;36.42;;;25.35;;
20056;SDS011;10189;49.546;7.906;2024-03-23T01:57:43;33.97;;;25.98;;
20056;SDS011;10189;49.546;7.906;2024-03-23T02:00:09;34.58;;;25.02;;
20056;SDS011;10189;49.546;7.906;2024-03-23T02:02:45;26.88;;;18.90;;
20056;SDS011;10189;49.546;7.906;2024-03-23T02:05:12;33.17;;;25.10;;
20056;SDS011;10189;49.546;7.906;2024-03-23T02:07:39;38.67;;;25.83;;
20056;SDS011;10189;49.546;7.906;2024-03-23T02:10:07;34.17;;;25.05;;
20056;SDS011;10189;49.546;7.906;2024-03-23T02:12:34;31.90;;;24.00;;
20056;SDS011;10189;49.546;7.906;2024-03-23T02:15:01;33.42;;;24.85;;
20056;SDS011;10189;49.546;7.906;2024-03-23T02:17:32;32.00;;;24.80;;
20056;SDS011;10189;49.546;7.906;2024-03-23T02:20:00;36.10;;;24.60;;
20056;SDS011;10189;49.546;7.906;2024-03-23T02:22:35;35.58;;;25.92;;
20056;SDS011;10189;49.546;7.906;2024-03-23T02:25:03;35.80;;;25.88;;
20056;SDS011;10189;49.546;7.906;2024-03-23T02:27:31;36.85;;;26.15;;
20056;SDS011;10189;49.546;7.906;2024-03-23T02:29:58;34.90;;;26.05;;
20056;SDS011;10189;49.546;7.906;2024-03-23T02:32:24;33.13;;;24.65;;
20056;SDS011;10189;49.546;7.906;2024-03-23T02:34:50;35.13;;;24.73;;
20056;SDS011;10189;49.546;7.906;2024-03-23T02:37:16;34.80;;;25.42;;
20056;SDS011;10189;49.546;7.906;2024-03-23T02:39:42;35.60;;;25.23;;
20056;SDS011;10189;49.546;7.906;2024-03-23T02:42:07;34.22;;;23.73;;
20056;SDS011;10189;49.546;7.906;2024-03-23T02:44:34;40.00;;;24.80;;
20056;SDS011;10189;49.546;7.906;2024-03-23T02:46:59;34.28;;;24.27;;
20056;SDS011;10189;49.546;7.906;2024-03-23T02:49:26;36.38;;;24.50;;
20056;SDS011;10189;49.546;7.906;2024-03-23T02:51:52;34.88;;;23.60;;
20056;SDS011;10189;49.546;7.906;2024-03-23T02:54:18;35.45;;;24.30;;
20056;SDS011;10189;49.546;7.906;2024-03-23T02:56:44;34.63;;;24.55;;
20056;SDS011;10189;49.546;7.906;2024-03-23T02:59:10;34.90;;;25.23;;
20056;SDS011;10189;49.546;7.906;2024-03-23T03:01:36;36.22;;;25.20;;
20056;SDS011;10189;49.546;7.906;2024-03-23T03:04:02;36.78;;;25.40;;
20056;SDS011;10189;49.546;7.906;2024-03-23T03:06:27;35.25;;;24.08;;
20056;SDS011;10189;49.546;7.906;2024-03-23T03:08:55;34.83;;;25.25;;
20056;SDS011;10189;49.546;7.906;2024-03-23T03:11:21;35.78;;;25.35;;
20056;SDS011;10189;49.546;7.906;2024-03-23T03:13:47;39.28;;;25.15;;
20056;SDS011;10189;49.546;7.906;2024-03-23T03:16:13;38.08;;;25.10;;
20056;SDS011;10189;49.546;7.906;2024-03-23T03:18:39;35.63;;;25.45;;
20056;SDS011;10189;49.546;7.906;2024-03-23T03:21:05;42.35;;;26.42;;
20056;SDS011;10189;49.546;7.906;2024-03-23T03:23:38;37.60;;;25.77;;
20056;SDS011;10189;49.546;7.906;2024-03-23T03:26:05;39.83;;;26.25;;
20056;SDS011;10189;49.546;7.906;2024-03-23T03:28:31;39.90;;;26.17;;
20056;SDS011;10189;49.546;7.906;2024-03-23T03:30:58;39.17;;;25.40;;
20056;SDS011;10189;49.546;7.906;2024-03-23T03:33:25;37.15;;;25.58;;
20056;SDS011;10189;49.546;7.906;2024-03-23T03:35:52;43.70;;;26.77;;
20056;SDS011;10189;49.546;7.906;2024-03-23T03:38:19;39.72;;;25.45;;
20056;SDS011;10189;49.546;7.906;2024-03-23T03:40:45;37.42;;;25.33;;
20056;SDS011;10189;49.546;7.906;2024-03-23T03:43:11;39.45;;;26.50;;
20056;SDS011;10189;49.546;7.906;2024-03-23T03:45:37;42.55;;;27.70;;
20056;SDS011;10189;49.546;7.906;2024-03-23T03:48:04;43.55;;;28.23;;
20056;SDS011;10189;49.546;7.906;2024-03-23T03:50:30;37.63;;;24.98;;
20056;SDS011;10189;49.546;7.906;2024-03-23T03:52:56;37.80;;;26.75;;
20056;SDS011;10189;49.546;7.906;2024-03-23T03:55:22;37.47;;;25.38;;
20056;SDS011;10189;49.546;7.906;2024-03-23T03:57:48;38.33;;;24.42;;
20056;SDS011;10189;49.546;7.906;2024-03-23T04:00:14;35.83;;;24.02;;
20056;SDS011;10189;49.546;7.906;2024-03-23T04:02:41;34.53;;;23.10;;
20056;SDS011;10189;49.546;7.906;2024-03-23T04:05:07;34.38;;;23.42;;
20056;SDS011;10189;49.546;7.906;2024-03-23T04:07:33;33.65;;;22.35;;
20056;SDS011;10189;49.546;7.906;2024-03-23T04:09:59;29.35;;;20.85;;
20056;SDS011;10189;49.546;7.906;2024-03-23T04:12:25;31.42;;;20.17;;
20056;SDS011;10189;49.546;7.906;2024-03-23T04:14:51;29.67;;;19.50;;
20056;SDS011;10189;49.546;7.906;2024-03-23T04:17:17;27.15;;;17.85;;
20056;SDS011;10189;49.546;7.906;2024-03-23T04:19:43;29.27;;;18.70;;
20056;SDS011;10189;49.546;7.906;2024-03-23T04:22:10;25.83;;;16.55;;
20056;SDS011;10189;49.546;7.906;2024-03-23T04:24:35;25.85;;;16.70;;
20056;SDS011;10189;49.546;7.906;2024-03-23T04:27:02;23.70;;;16.27;;
20056;SDS011;10189;49.546;7.906;2024-03-23T04:29:28;22.55;;;15.57;;
20056;SDS011;10189;49.546;7.906;2024-03-23T04:31:54;24.55;;;15.70;;
20056;SDS011;10189;49.546;7.906;2024-03-23T04:34:20;22.67;;;14.55;;
20056;SDS011;10189;49.546;7.906;2024-03-23T04:36:48;25.80;;;15.88;;
20056;SDS011;10189;49.546;7.906;2024-03-23T04:39:14;24.98;;;16.17;;
20056;SDS011;10189;49.546;7.906;2024-03-23T04:41:40;4.85;;;3.80;;
20056;SDS011;10189;49.546;7.906;2024-03-23T04:44:06;5.05;;;3.33;;
20056;SDS011;10189;49.546;7.906;2024-03-23T04:46:32;4.57;;;3.40;;
20056;SDS011;10189;49.546;7.906;2024-03-23T04:48:58;5.03;;;4.03;;
20056;SDS011;10189;49.546;7.906;2024-03-23T04:51:24;6.47;;;4.70;;
20056;SDS011;10189;49.546;7.906;2024-03-23T04:53:51;6.50;;;5.22;;
20056;SDS011;10189;49.546;7.906;2024-03-23T04:56:17;6.10;;;4.35;;
20056;SDS011;10189;49.546;7.906;2024-03-23T04:58:44;5.05;;;3.65;;
20056;SDS011;10189;49.546;7.906;2024-03-23T05:01:13;5.70;;;4.10;;
20056;SDS011;10189;49.546;7.906;2024-03-23T05:03:39;4.55;;;3.63;;
20056;SDS011;10189;49.546;7.906;2024-03-23T05:06:05;3.70;;;2.80;;
20056;SDS011;10189;49.546;7.906;2024-03-23T05:08:31;4.13;;;2.83;;
20056;SDS011;10189;49.546;7.906;2024-03-23T05:10:57;3.83;;;2.65;;
20056;SDS011;10189;49.546;7.906;2024-03-23T05:13:23;5.30;;;2.47;;
20056;SDS011;10189;49.546;7.906;2024-03-23T05:15:55;4.43;;;2.60;;
20056;SDS011;10189;49.546;7.906;2024-03-23T05:18:21;3.60;;;2.45;;
20056;SDS011;10189;49.546;7.906;2024-03-23T05:20:47;2.58;;;2.15;;
20056;SDS011;10189;49.546;7.906;2024-03-23T05:23:13;2.70;;;1.95;;
20056;SDS011;10189;49.546;7.906;2024-03-23T05:25:40;2.58;;;1.90;;
20056;SDS011;10189;49.546;7.906;2024-03-23T05:28:06;2.83;;;1.45;;
20056;SDS011;10189;49.546;7.906;2024-03-23T05:30:32;4.32;;;1.83;;
20056;SDS011;10189;49.546;7.906;2024-03-23T05:32:58;1.88;;;1.50;;
20056;SDS011;10189;49.546;7.906;2024-03-23T05:35:24;1.38;;;1.27;;
20056;SDS011;10189;49.546;7.906;2024-03-23T05:37:50;1.50;;;1.38;;
20056;SDS011;10189;49.546;7.906;2024-03-23T05:40:16;1.55;;;1.05;;
20056;SDS011;10189;49.546;7.906;2024-03-23T05:42:41;1.10;;;0.90;;
20056;SDS011;10189;49.546;7.906;2024-03-23T05:45:07;0.95;;;0.80;;
20056;SDS011;10189;49.546;7.906;2024-03-23T05:47:34;1.15;;;0.93;;
20056;SDS011;10189;49.546;7.906;2024-03-23T05:50:00;1.73;;;0.70;;
20056;SDS011;10189;49.546;7.906;2024-03-23T05:52:27;2.22;;;0.68;;
20056;SDS011;10189;49.546;7.906;2024-03-23T05:54:53;1.23;;;0.70;;
20056;SDS011;10189;49.546;7.906;2024-03-23T05:57:19;1.38;;;0.60;;
20056;SDS011;10189;49.546;7.906;2024-03-23T05:59:45;0.60;;;0.60;;
20056;SDS011;10189;49.546;7.906;2024-03-23T06:02:11;0.60;;;0.60;;
20056;SDS011;10189;49.546;7.906;2024-03-23T06:04:37;0.70;;;0.60;;
20056;SDS011;10189;49.546;7.906;2024-03-23T06:07:03;1.40;;;0.70;;
20056;SDS011;10189;49.546;7.906;2024-03-23T06:09:31;0.70;;;0.60;;
20056;SDS011;10189;49.546;7.906;2024-03-23T06:11:57;0.55;;;0.55;;
20056;SDS011;10189;49.546;7.906;2024-03-23T06:14:23;0.57;;;0.52;;
20056;SDS011;10189;49.546;7.906;2024-03-23T06:16:49;0.50;;;0.50;;
20056;SDS011;10189;49.546;7.906;2024-03-23T06:19:15;0.65;;;0.57;;
20056;SDS011;10189;49.546;7.906;2024-03-23T06:21:44;1.45;;;0.47;;
20056;SDS011;10189;49.546;7.906;2024-03-23T06:24:11;0.57;;;0.45;;
20056;SDS011;10189;49.546;7.906;2024-03-23T06:26:37;0.40;;;0.40;;
20056;SDS011;10189;49.546;7.906;2024-03-23T06:29:03;1.42;;;0.40;;
20056;SDS011;10189;49.546;7.906;2024-03-23T06:31:30;3.28;;;0.40;;
20056;SDS011;10189;49.546;7.906;2024-03-23T06:33:56;0.45;;;0.40;;
20056;SDS011;10189;49.546;7.906;2024-03-23T06:36:22;0.85;;;0.50;;
20056;SDS011;10189;49.546;7.906;2024-03-23T06:38:48;0.68;;;0.50;;
20056;SDS011;10189;49.546;7.906;2024-03-23T06:41:14;0.85;;;0.60;;
20056;SDS011;10189;49.546;7.906;2024-03-23T06:43:40;0.77;;;0.65;;
20056;SDS011;10189;49.546;7.906;2024-03-23T06:46:06;1.48;;;0.55;;
20056;SDS011;10189;49.546;7.906;2024-03-23T06:48:32;0.95;;;0.82;;
20056;SDS011;10189;49.546;7.906;2024-03-23T06:50:58;1.45;;;1.00;;
20056;SDS011;10189;49.546;7.906;2024-03-23T06:53:24;2.20;;;0.90;;
20056;SDS011;10189;49.546;7.906;2024-03-23T06:55:51;4.45;;;1.05;;
20056;SDS011;10189;49.546;7.906;2024-03-23T06:58:19;1.60;;;1.00;;
20056;SDS011;10189;49.546;7.906;2024-03-23T07:00:46;2.97;;;1.00;;
20056;SDS011;10189;49.546;7.906;2024-03-23T07:03:11;1.65;;;1.30;;
20056;SDS011;10189;49.546;7.906;2024-03-23T07:05:37;4.20;;;1.30;;
20056;SDS011;10189;49.546;7.906;2024-03-23T07:08:03;3.35;;;1.50;;
20056;SDS011;10189;49.546;7.906;2024-03-23T07:10:30;4.40;;;1.95;;
20056;SDS011;10189;49.546;7.906;2024-03-23T07:12:56;2.85;;;2.15;;
20056;SDS011;10189;49.546;7.906;2024-03-23T07:15:22;6.28;;;2.05;;
20056;SDS011;10189;49.546;7.906;2024-03-23T07:17:48;4.50;;;1.95;;
20056;SDS011;10189;49.546;7.906;2024-03-23T07:20:14;4.18;;;2.35;;
20056;SDS011;10189;49.546;7.906;2024-03-23T07:22:40;6.30;;;2.47;;
20056;SDS011;10189;49.546;7.906;2024-03-23T07:25:06;5.07;;;2.28;;
20056;SDS011;10189;49.546;7.906;2024-03-23T07:27:32;4.95;;;2.28;;
20056;SDS011;10189;49.546;7.906;2024-03-23T07:29:59;5.03;;;2.17;;
20056;SDS011;10189;49.546;7.906;2024-03-23T07:32:26;5.07;;;2.17;;
20056;SDS011;10189;49.546;7.906;2024-03-23T07:34:52;4.55;;;2.10;;
20056;SDS011;10189;49.546;7.906;2024-03-23T07:37:18;3.70;;;2.35;;
20056;SDS011;10189;49.546;7.906;2024-03-23T07:39:44;7.25;;;3.10;;
20056;SDS011;10189;49.546;7.906;2024-03-23T07:42:10;5.30;;;2.60;;
20056;SDS011;10189;49.546;7.906;2024-03-23T07:44:36;5.78;;;2.90;;
20056;SDS011;10189;49.546;7.906;2024-03-23T07:47:02;7.55;;;3.38;;
20056;SDS011;10189;49.546;7.906;2024-03-23T07:49:28;7.05;;;3.20;;
20056;SDS011;10189;49.546;7.906;2024-03-23T07:51:55;7.47;;;3.33;;
20056;SDS011;10189;49.546;7.906;2024-03-23T07:54:20;8.88;;;3.88;;
20056;SDS011;10189;49.546;7.906;2024-03-23T07:56:47;9.32;;;3.67;;
20056;SDS011;10189;49.546;7.906;2024-03-23T07:59:12;7.43;;;3.45;;
20056;SDS011;10189;49.546;7.906;2024-03-23T08:01:38;5.57;;;3.28;;
20056;SDS011;10189;49.546;7.906;2024-03-23T08:04:05;6.00;;;3.05;;
20056;SDS011;10189;49.546;7.906;2024-03-23T08:06:31;8.05;;;3.63;;
20056;SDS011;10189;49.546;7.906;2024-03-23T08:08:57;10.45;;;4.28;;
20056;SDS011;10189;49.546;7.906;2024-03-23T08:11:27;10.10;;;4.22;;
20056;SDS011;10189;49.546;7.906;2024-03-23T08:13:54;10.00;;;3.78;;
20056;SDS011;10189;49.546;7.906;2024-03-23T08:16:22;8.15;;;4.72;;
20056;SDS011;10189;49.546;7.906;2024-03-23T08:18:48;7.32;;;4.15;;
20056;SDS011;10189;49.546;7.906;2024-03-23T08:21:16;8.70;;;4.70;;
20056;SDS011;10189;49.546;7.906;2024-03-23T08:23:43;12.45;;;5.07;;
20056;SDS011;10189;49.546;7.906;2024-03-23T08:26:10;15.20;;;5.38;;
20056;SDS011;10189;49.546;7.906;2024-03-23T08:28:38;13.82;;;5.82;;
20056;SDS011;10189;49.546;7.906;2024-03-23T08:31:08;11.13;;;5.38;;
20056;SDS011;10189;49.546;7.906;2024-03-23T08:33:38;10.00;;;4.95;;
20056;SDS011;10189;49.546;7.906;2024-03-23T08:36:05;11.02;;;5.40;;
20056;SDS011;10189;49.546;7.906;2024-03-23T08:38:34;10.82;;;4.88;;
20056;SDS011;10189;49.546;7.906;2024-03-23T08:41:03;12.95;;;5.35;;
20056;SDS011;10189;49.546;7.906;2024-03-23T08:43:37;9.68;;;5.10;;
20056;SDS011;10189;49.546;7.906;2024-03-23T08:48:39;10.15;;;4.75;;
20056;SDS011;10189;49.546;7.906;2024-03-23T08:51:11;9.00;;;4.25;;
20056;SDS011;10189;49.546;7.906;2024-03-23T08:53:39;10.32;;;5.05;;
20056;SDS011;10189;49.546;7.906;2024-03-23T08:56:06;12.75;;;4.88;;
20056;SDS011;10189;49.546;7.906;2024-03-23T08:58:33;10.00;;;4.72;;
20056;SDS011;10189;49.546;7.906;2024-03-23T09:03:34;10.15;;;4.82;;
20056;SDS011;10189;49.546;7.906;2024-03-23T09:06:02;10.63;;;4.55;;
20056;SDS011;10189;49.546;7.906;2024-03-23T09:08:39;12.30;;;4.35;;
20056;SDS011;10189;49.546;7.906;2024-03-23T09:11:06;11.25;;;3.85;;
20056;SDS011;10189;49.546;7.906;2024-03-23T09:13:34;8.32;;;3.75;;
20056;SDS011;10189;49.546;7.906;2024-03-23T09:16:02;11.35;;;4.25;;
20056;SDS011;10189;49.546;7.906;2024-03-23T09:18:31;8.13;;;3.78;;
20056;SDS011;10189;49.546;7.906;2024-03-23T09:21:01;8.07;;;3.97;;
20056;SDS011;10189;49.546;7.906;2024-03-23T09:23:43;9.75;;;4.07;;
20056;SDS011;10189;49.546;7.906;2024-03-23T09:26:10;11.32;;;4.35;;
20056;SDS011;10189;49.546;7.906;2024-03-23T09:28:36;7.50;;;3.95;;
20056;SDS011;10189;49.546;7.906;2024-03-23T09:31:03;13.18;;;4.35;;
20056;SDS011;10189;49.546;7.906;2024-03-23T09:33:35;9.18;;;4.10;;
20056;SDS011;10189;49.546;7.906;2024-03-23T09:36:05;8.75;;;3.95;;
20056;SDS011;10189;49.546;7.906;2024-03-23T09:38:32;10.30;;;3.80;;
20056;SDS011;10189;49.546;7.906;2024-03-23T09:40:59;8.35;;;3.65;;
20056;SDS011;10189;49.546;7.906;2024-03-23T09:43:25;11.68;;;4.13;;
20056;SDS011;10189;49.546;7.906;2024-03-23T09:45:52;6.95;;;3.35;;
20056;SDS011;10189;49.546;7.906;2024-03-23T09:48:18;8.27;;;3.60;;
20056;SDS011;10189;49.546;7.906;2024-03-23T09:50:45;8.73;;;3.70;;
20056;SDS011;10189;49.546;7.906;2024-03-23T09:53:12;12.65;;;4.13;;
20056;SDS011;10189;49.546;7.906;2024-03-23T09:55:42;8.65;;;3.40;;
20056;SDS011;10189;49.546;7.906;2024-03-23T10:00:44;8.10;;;3.30;;
20056;SDS011;10189;49.546;7.906;2024-03-23T10:03:10;7.05;;;3.80;;
20056;SDS011;10189;49.546;7.906;2024-03-23T10:05:36;10.93;;;3.47;;
20056;SDS011;10189;49.546;7.906;2024-03-23T10:08:21;8.30;;;3.50;;
20056;SDS011;10189;49.546;7.906;2024-03-23T10:10:47;9.85;;;3.78;;
20056;SDS011;10189;49.546;7.906;2024-03-23T10:13:26;10.88;;;3.88;;
20056;SDS011;10189;49.546;7.906;2024-03-23T10:15:56;7.30;;;3.58;;
20056;SDS011;10189;49.546;7.906;2024-03-23T10:18:25;7.57;;;3.78;;
20056;SDS011;10189;49.546;7.906;2024-03-23T10:23:33;6.53;;;3.65;;
20056;SDS011;10189;49.546;7.906;2024-03-23T10:26:16;7.75;;;4.30;;
20056;SDS011;10189;49.546;7.906;2024-03-23T10:31:25;28.30;;;11.32;;
20056;SDS011;10189;49.546;7.906;2024-03-23T10:33:56;11.23;;;4.68;;
20056;SDS011;10189;49.546;7.906;2024-03-23T10:36:23;8.05;;;3.65;;
20056;SDS011;10189;49.546;7.906;2024-03-23T10:38:54;9.33;;;3.90;;
20056;SDS011;10189;49.546;7.906;2024-03-23T10:41:20;8.10;;;4.38;;
20056;SDS011;10189;49.546;7.906;2024-03-23T10:43:46;10.27;;;3.22;;
20056;SDS011;10189;49.546;7.906;2024-03-23T10:46:14;12.15;;;3.67;;
20056;SDS011;10189;49.546;7.906;2024-03-23T10:48:41;11.50;;;3.70;;
20056;SDS011;10189;49.546;7.906;2024-03-23T10:51:08;9.65;;;4.00;;
20056;SDS011;10189;49.546;7.906;2024-03-23T10:53:36;7.32;;;2.78;;
20056;SDS011;10189;49.546;7.906;2024-03-23T10:56:05;7.97;;;3.53;;
20056;SDS011;10189;49.546;7.906;2024-03-23T10:58:36;10.05;;;3.70;;
20056;SDS011;10189;49.546;7.906;2024-03-23T11:01:12;10.23;;;3.22;;
20056;SDS011;10189;49.546;7.906;2024-03-23T11:03:39;9.75;;;3.28;;
20056;SDS011;10189;49.546;7.906;2024-03-23T11:06:12;8.60;;;3.17;;
20056;SDS011;10189;49.546;7.906;2024-03-23T11:09:02;5.50;;;2.95;;
20056;SDS011;10189;49.546;7.906;2024-03-23T11:11:28;9.65;;;3.67;;
20056;SDS011;10189;49.546;7.906;2024-03-23T11:13:57;6.35;;;2.85;;
20056;SDS011;10189;49.546;7.906;2024-03-23T11:16:28;3.95;;;2.45;;
20056;SDS011;10189;49.546;7.906;2024-03-23T11:22:04;4.40;;;2.72;;
20056;SDS011;10189;49.546;7.906;2024-03-23T11:24:31;5.78;;;3.15;;
20056;SDS011;10189;49.546;7.906;2024-03-23T11:26:57;6.13;;;3.38;;
20056;SDS011;10189;49.546;7.906;2024-03-23T11:29:29;5.60;;;2.92;;
20056;SDS011;10189;49.546;7.906;2024-03-23T11:31:55;6.38;;;3.30;;
20056;SDS011;10189;49.546;7.906;2024-03-23T11:34:21;6.05;;;2.88;;
20056;SDS011;10189;49.546;7.906;2024-03-23T11:36:47;6.18;;;2.60;;
20056;SDS011;10189;49.546;7.906;2024-03-23T11:39:19;6.82;;;3.17;;
20056;SDS011;10189;49.546;7.906;2024-03-23T11:44:20;7.70;;;2.83;;
20056;SDS011;10189;49.546;7.906;2024-03-23T11:46:52;4.93;;;3.17;;
20056;SDS011;10189;49.546;7.906;2024-03-23T11:49:22;5.03;;;2.30;;
20056;SDS011;10189;49.546;7.906;2024-03-23T11:51:50;2.78;;;2.20;;
20056;SDS011;10189;49.546;7.906;2024-03-23T11:54:25;3.40;;;2.22;;
20056;SDS011;10189;49.546;7.906;2024-03-23T11:57:06;3.78;;;2.60;;
20056;SDS011;10189;49.546;7.906;2024-03-23T12:02:08;4.75;;;3.17;;
20056;SDS011;10189;49.546;7.906;2024-03-23T12:04:40;1.55;;;1.33;;
20056;SDS011;10189;49.546;7.906;2024-03-23T12:07:14;3.35;;;1.30;;
20056;SDS011;10189;49.546;7.906;2024-03-23T12:09:45;2.40;;;1.30;;
20056;SDS011;10189;49.546;7.906;2024-03-23T12:12:17;2.97;;;1.63;;
20056;SDS011;10189;49.546;7.906;2024-03-23T12:14:44;4.60;;;1.80;;
20056;SDS011;10189;49.546;7.906;2024-03-23T12:17:25;4.88;;;1.70;;
20056;SDS011;10189;49.546;7.906;2024-03-23T12:19:51;4.40;;;1.90;;
20056;SDS011;10189;49.546;7.906;2024-03-23T12:22:21;3.80;;;1.48;;
20056;SDS011;10189;49.546;7.906;2024-03-23T12:24:48;3.67;;;1.88;;
20056;SDS011;10189;49.546;7.906;2024-03-23T12:27:15;5.50;;;2.20;;
20056;SDS011;10189;49.546;7.906;2024-03-23T12:29:41;3.83;;;2.08;;
20056;SDS011;10189;49.546;7.906;2024-03-23T12:32:15;4.55;;;2.15;;
20056;SDS011;10189;49.546;7.906;2024-03-23T12:34:41;5.70;;;2.33;;
20056;SDS011;10189;49.546;7.906;2024-03-23T12:37:08;5.95;;;2.30;;
20056;SDS011;10189;49.546;7.906;2024-03-23T12:39:37;3.33;;;1.48;;
20056;SDS011;10189;49.546;7.906;2024-03-23T12:42:03;3.50;;;1.15;;
20056;SDS011;10189;49.546;7.906;2024-03-23T12:44:30;3.90;;;1.48;;
20056;SDS011;10189;49.546;7.906;2024-03-23T12:46:55;5.50;;;1.63;;
20056;SDS011;10189;49.546;7.906;2024-03-23T12:49:21;7.10;;;2.88;;
20056;SDS011;10189;49.546;7.906;2024-03-23T12:51:55;7.10;;;1.50;;
20056;SDS011;10189;49.546;7.906;2024-03-23T12:54:22;5.85;;;3.33;;
20056;SDS011;10189;49.546;7.906;2024-03-23T12:56:49;5.70;;;1.48;;
20056;SDS011;10189;49.546;7.906;2024-03-23T12:59:15;2.50;;;1.20;;
20056;SDS011;10189;49.546;7.906;2024-03-23T13:01:42;4.07;;;1.35;;
20056;SDS011;10189;49.546;7.906;2024-03-23T13:04:09;5.00;;;1.50;;
20056;SDS011;10189;49.546;7.906;2024-03-23T13:06:35;2.88;;;1.35;;
20056;SDS011;10189;49.546;7.906;2024-03-23T13:09:01;2.92;;;1.50;;
20056;SDS011;10189;49.546;7.906;2024-03-23T13:11:28;4.38;;;1.38;;
20056;SDS011;10189;49.546;7.906;2024-03-23T13:13:55;4.95;;;1.67;;
20056;SDS011;10189;49.546;7.906;2024-03-23T13:16:21;4.28;;;1.50;;
20056;SDS011;10189;49.546;7.906;2024-03-23T13:18:47;5.47;;;1.70;;
20056;SDS011;10189;49.546;7.906;2024-03-23T13:21:13;4.60;;;1.50;;
20056;SDS011;10189;49.546;7.906;2024-03-23T13:23:39;3.10;;;1.50;;
20056;SDS011;10189;49.546;7.906;2024-03-23T13:26:07;2.75;;;1.50;;
20056;SDS011;10189;49.546;7.906;2024-03-23T13:28:33;2.25;;;1.42;;
20056;SDS011;10189;49.546;7.906;2024-03-23T13:31:01;3.28;;;1.20;;
20056;SDS011;10189;49.546;7.906;2024-03-23T13:33:31;2.92;;;1.30;;
20056;SDS011;10189;49.546;7.906;2024-03-23T13:35:57;3.28;;;1.50;;
20056;SDS011;10189;49.546;7.906;2024-03-23T13:38:23;2.28;;;1.30;;
20056;SDS011;10189;49.546;7.906;2024-03-23T13:40:53;2.53;;;1.38;;
20056;SDS011;10189;49.546;7.906;2024-03-23T13:43:22;4.35;;;1.70;;
20056;SDS011;10189;49.546;7.906;2024-03-23T13:45:54;2.47;;;1.83;;
20056;SDS011;10189;49.546;7.906;2024-03-23T13:48:23;3.92;;;1.90;;
20056;SDS011;10189;49.546;7.906;2024-03-23T13:51:01;4.05;;;1.75;;
20056;SDS011;10189;49.546;7.906;2024-03-23T13:53:29;3.42;;;2.47;;
20056;SDS011;10189;49.546;7.906;2024-03-23T13:55:57;2.42;;;1.50;;
20056;SDS011;10189;49.546;7.906;2024-03-23T13:58:24;3.30;;;1.65;;
20056;SDS011;10189;49.546;7.906;2024-03-23T14:00:52;2.58;;;1.98;;
20056;SDS011;10189;49.546;7.906;2024-03-23T14:03:18;6.43;;;1.95;;
20056;SDS011;10189;49.546;7.906;2024-03-23T14:05:44;5.13;;;2.08;;
20056;SDS011;10189;49.546;7.906;2024-03-23T14:08:12;3.30;;;2.22;;
20056;SDS011;10189;49.546;7.906;2024-03-23T14:10:41;4.07;;;2.40;;
20056;SDS011;10189;49.546;7.906;2024-03-23T14:13:08;4.55;;;2.17;;
20056;SDS011;10189;49.546;7.906;2024-03-23T14:15:34;3.20;;;2.13;;
20056;SDS011;10189;49.546;7.906;2024-03-23T14:18:02;3.55;;;2.05;;
20056;SDS011;10189;49.546;7.906;2024-03-23T14:20:28;3.08;;;2.10;;
20056;SDS011;10189;49.546;7.906;2024-03-23T14:22:54;3.25;;;1.80;;
20056;SDS011;10189;49.546;7.906;2024-03-23T14:25:21;6.72;;;1.85;;
20056;SDS011;10189;49.546;7.906;2024-03-23T14:27:49;5.63;;;2.20;;
20056;SDS011;10189;49.546;7.906;2024-03-23T14:30:14;3.55;;;1.40;;
20056;SDS011;10189;49.546;7.906;2024-03-23T14:32:40;1.50;;;1.17;;
20056;SDS011;10189;49.546;7.906;2024-03-23T14:35:06;2.90;;;1.10;;
20056;SDS011;10189;49.546;7.906;2024-03-23T14:37:36;2.10;;;0.98;;
20056;SDS011;10189;49.546;7.906;2024-03-23T14:40:07;3.65;;;0.80;;
20056;SDS011;10189;49.546;7.906;2024-03-23T14:42:33;1.42;;;0.80;;
20056;SDS011;10189;49.546;7.906;2024-03-23T14:44:59;4.15;;;0.85;;
20056;SDS011;10189;49.546;7.906;2024-03-23T14:47:25;2.65;;;0.77;;
20056;SDS011;10189;49.546;7.906;2024-03-23T14:49:51;2.55;;;0.88;;
20056;SDS011;10189;49.546;7.906;2024-03-23T14:52:17;3.63;;;0.85;;
20056;SDS011;10189;49.546;7.906;2024-03-23T14:54:46;1.73;;;0.70;;
20056;SDS011;10189;49.546;7.906;2024-03-23T14:57:12;2.55;;;0.88;;
20056;SDS011;10189;49.546;7.906;2024-03-23T14:59:38;3.20;;;0.90;;
20056;SDS011;10189;49.546;7.906;2024-03-23T15:02:06;2.45;;;1.13;;
20056;SDS011;10189;49.546;7.906;2024-03-23T15:04:32;10.40;;;7.22;;
20056;SDS011;10189;49.546;7.906;2024-03-23T15:06:59;3.10;;;2.05;;
20056;SDS011;10189;49.546;7.906;2024-03-23T15:09:25;2.92;;;1.27;;
20056;SDS011;10189;49.546;7.906;2024-03-23T15:11:52;2.67;;;1.40;;
20056;SDS011;10189;49.546;7.906;2024-03-23T15:14:20;2.35;;;1.60;;
20056;SDS011;10189;49.546;7.906;2024-03-23T15:16:46;2.42;;;1.20;;
20056;SDS011;10189;49.546;7.906;2024-03-23T15:19:14;1.90;;;1.30;;
20056;SDS011;10189;49.546;7.906;2024-03-23T15:21:42;2.58;;;1.23;;
20056;SDS011;10189;49.546;7.906;2024-03-23T15:24:09;3.08;;;1.40;;
20056;SDS011;10189;49.546;7.906;2024-03-23T15:26:36;4.97;;;2.33;;
20056;SDS011;10189;49.546;7.906;2024-03-23T15:29:03;6.35;;;3.45;;
20056;SDS011;10189;49.546;7.906;2024-03-23T15:31:35;3.22;;;1.80;;
20056;SDS011;10189;49.546;7.906;2024-03-23T15:34:01;3.42;;;1.90;;
20056;SDS011;10189;49.546;7.906;2024-03-23T15:36:28;2.67;;;1.85;;
20056;SDS011;10189;49.546;7.906;2024-03-23T15:38:54;7.50;;;5.60;;
20056;SDS011;10189;49.546;7.906;2024-03-23T15:41:20;3.83;;;1.88;;
20056;SDS011;10189;49.546;7.906;2024-03-23T15:43:48;4.47;;;2.75;;
20056;SDS011;10189;49.546;7.906;2024-03-23T15:46:14;5.18;;;3.00;;
20056;SDS011;10189;49.546;7.906;2024-03-23T15:48:41;2.88;;;1.60;;
20056;SDS011;10189;49.546;7.906;2024-03-23T15:51:12;3.20;;;2.03;;
20056;SDS011;10189;49.546;7.906;2024-03-23T15:53:39;5.68;;;3.53;;
20056;SDS011;10189;49.546;7.906;2024-03-23T15:56:05;2.35;;;1.88;;